Pagrindinis puslapis
METAR-TAF:

METAR-TAF

Oro uostai :

Vinycia, Ukraina

platuma: 49-14-23N, ilguma: 028-36-50E, Aukštis: 974 m

Dabartinis oras

Ataskaita buvo paskelbta 10 valandos ir 3 minutes, ne 18:00 UTC
Vėjas 4 kt iš Pietų
Temperatūra 6°C
Drėgmė 75%
Slėgis 1019 hPa
Matomumas 10 km arba daugiau
nėra debesų žemiau 1500 m ir nėra kamuolinių lietaus debesų

METAR: UKWW 171800Z 18002MPS CAVOK 06/02 Q1019 NOSIG

Laikas: 06:03 (04:03 UTC)

Prognozė

Ataskaita buvo paskelbta 10 valandos ir 53 minutes, ne 17:10 UTC
Prognozė galioja nuo 17 metu 18 UTC su 18 metu 03 UTC
Vėjas 10 kt iš Pietų/Pietvakarių
Matomumas 10 km arba daugiau
Išsisklaidę debesys ne aukštis 3000 ft

TAF: UKWW 171710Z 1718/1803 20005MPS 9999 SCT030 TX06/1718Z TN03/1803Z

Orai ataskaitas ir orų prognozės (METAR, TAF).

turimą stotys yra geltonos ir raudonos taškus žemėlapyje.

Perkelti pele per norėdami pamatyti stoties vardą.

Tada spustelėkite, norėdami matyti oro stebėjimo ir prognozės.

Norėdami pakeisti žemėlapį: spustelėkite ant žalios mygtukų su juodo kryžiaus žemyn,; žalią mygtuką su brūkšneliu, jei norite nutolinti; arba žalių rodyklių gretimoms žemėlapius.


METAR-TAF: